Time;durP1;ratioP1;P1;durP2;ratioP2;P2;SDS_P1;SDS_P2;PMS_P1;PMS_P2;Temp;Humidity;BMP_temperature;BMP_pressure;BME280_temperature;BME280_humidity;BME280_pressure;Samples;Min_cycle;Max_cycle;Signal;HPM_P1;HPM_P2
2022/08/03 00:00:25;;;;;;;;;;;;;;;24.18;46.08;99964.34;4286489;33;19981;-81
2022/08/03 00:02:52;;;;;;;;;;;;;;;24.14;45.66;99958.31;4282926;33;20357;-81
2022/08/03 00:05:19;;;;;;;;;;;;;;;24.12;45.95;99954.87;4282232;33;19984;-82
2022/08/03 00:07:46;;;;;;;;;;;;;;;24.12;45.68;99954.87;4289848;33;20299;-82
2022/08/03 00:10:15;;;;;;;;;;;;;;;24.00;46.14;99960.63;4285469;33;19980;-82
2022/08/03 00:12:42;;;;;;;;;;;;;;;23.98;46.64;99962.44;4283145;33;19989;-82
2022/08/03 00:15:09;;;;;;;;;;;;;;;23.91;46.97;99960.97;4291392;33;20032;-81
2022/08/03 00:17:43;;;;;;;;;;;;;;;23.76;47.29;99964.16;4283576;33;20000;-81
2022/08/03 00:20:22;;;;;;;;;;;;;;;23.47;48.24;99966.03;4286279;33;20003;-81
2022/08/03 00:22:50;;;;;;;;;;;;;;;23.64;47.84;99963.66;4287096;33;20008;-82
2022/08/03 00:25:17;;;;;;;;;;;;;;;23.54;47.82;99962.25;4289873;33;20480;-82
2022/08/03 00:27:44;;;;;;;;;;;;;;;23.64;47.25;99971.59;4274682;33;19998;-82
2022/08/03 00:30:14;;;;;;;;;;;;;;;23.55;48.00;99964.00;4283658;33;19981;-81
2022/08/03 00:32:42;;;;;;;;;;;;;;;23.53;48.09;99959.66;4287162;33;20041;-82
2022/08/03 00:35:11;;;;;;;;;;;;;;;23.56;47.88;99971.00;4296238;33;19994;-81
2022/08/03 00:37:58;;;;;;;;;;;;;;;23.47;48.19;99959.88;4292894;33;19985;-81
2022/08/03 00:40:25;;;;;;;;;;;;;;;23.49;47.84;99964.19;4283192;33;19981;-81
2022/08/03 00:42:55;;;;;;;;;;;;;;;23.69;47.28;99965.31;4291622;33;19996;-81
2022/08/03 00:45:26;;;;;;;;;;;;;;;23.74;47.62;99963.34;4282368;33;19993;-81
2022/08/03 00:47:54;;;;;;;;;;;;;;;23.63;47.74;99961.91;4283386;33;19965;-82
2022/08/03 00:50:22;;;;;;;;;;;;;;;23.56;48.14;99965.72;4283424;33;20033;-82
2022/08/03 00:52:49;;;;;;;;;;;;;;;23.60;47.50;99972.59;4283713;33;19985;-81
2022/08/03 00:55:16;;;;;;;;;;;;;;;23.44;48.16;99974.06;4281894;33;19989;-81
2022/08/03 00:57:43;;;;;;;;;;;;;;;23.32;48.94;99971.84;4289991;33;20048;-81
2022/08/03 01:00:11;;;;;;;;;;;;;;;22.91;49.43;99976.69;4283509;33;20004;-80
2022/08/03 01:02:38;;;;;;;;;;;;;;;23.33;48.25;99970.94;4243341;33;19994;-81
2022/08/03 01:05:06;;;;;;;;;;;;;;;23.37;48.32;99975.19;4289271;33;20011;-81
2022/08/03 01:07:39;;;;;;;;;;;;;;;23.53;47.72;99979.03;4282246;33;20049;-81
2022/08/03 01:10:09;;;;;;;;;;;;;;;23.33;48.44;99968.31;4291158;33;19973;-81
2022/08/03 01:12:42;;;;;;;;;;;;;;;23.29;48.88;99970.16;4282010;33;19989;-82
2022/08/03 01:15:15;;;;;;;;;;;;;;;23.26;48.76;99969.41;4282551;33;20004;-81
2022/08/03 01:17:42;;;;;;;;;;;;;;;23.43;48.42;99969.69;4276416;33;21082;-81
2022/08/03 01:20:13;;;;;;;;;;;;;;;23.43;48.64;99975.84;4283162;33;19988;-82
2022/08/03 01:22:59;;;;;;;;;;;;;;;23.21;49.14;99975.72;4273406;33;20000;-82
2022/08/03 01:25:38;;;;;;;;;;;;;;;23.16;49.10;99971.50;4272318;33;20019;-81
2022/08/03 01:28:20;;;;;;;;;;;;;;;23.20;49.35;99976.63;4277981;33;19977;-81
2022/08/03 01:30:49;;;;;;;;;;;;;;;22.98;50.32;99972.97;4284253;33;19978;-82
2022/08/03 01:33:18;;;;;;;;;;;;;;;23.11;49.96;99969.00;4288229;33;20036;-82
2022/08/03 01:35:59;;;;;;;;;;;;;;;23.26;49.38;99972.03;4254863;33;20035;-82
2022/08/03 01:38:35;;;;;;;;;;;;;;;23.12;49.86;99976.00;4296530;33;20319;-81
2022/08/03 01:41:03;;;;;;;;;;;;;;;23.15;49.29;99969.78;4301545;33;20008;-81
2022/08/03 01:43:31;;;;;;;;;;;;;;;23.15;49.48;99970.63;4303858;33;20003;-81
2022/08/03 01:46:19;;;;;;;;;;;;;;;22.90;50.21;99974.97;4302858;33;19981;-81
2022/08/03 01:48:47;;;;;;;;;;;;;;;23.05;49.35;99963.94;4301755;33;19973;-81
2022/08/03 01:51:16;;;;;;;;;;;;;;;23.05;49.86;99971.84;4298698;33;19997;-82
2022/08/03 01:53:43;;;;;;;;;;;;;;;22.92;50.57;99968.72;4299795;33;20028;-81
2022/08/03 01:56:11;;;;;;;;;;;;;;;23.09;49.67;99970.84;4301778;33;19992;-81
2022/08/03 01:58:39;;;;;;;;;;;;;;;22.91;50.39;99966.12;4297554;33;19976;-81
2022/08/03 02:01:07;;;;;;;;;;;;;;;23.02;49.81;99971.09;4296143;33;20275;-82
2022/08/03 02:03:39;;;;;;;;;;;;;;;22.96;49.96;99974.78;4296191;33;20032;-80
2022/08/03 02:06:27;;;;;;;;;;;;;;;22.74;50.70;99970.16;4297358;33;19999;-81
2022/08/03 02:09:15;;;;;;;;;;;;;;;22.69;51.04;99976.53;4300989;33;20319;-81
2022/08/03 02:11:42;;;;;;;;;;;;;;;22.64;51.16;99979.28;4309780;33;19984;-81
2022/08/03 02:14:10;;;;;;;;;;;;;;;22.63;51.29;99977.56;4309206;33;19984;-81
2022/08/03 02:16:39;;;;;;;;;;;;;;;22.62;51.28;99970.59;4290291;33;20673;-80
2022/08/03 02:19:06;;;;;;;;;;;;;;;22.61;51.23;99976.75;4302449;33;19980;-81
2022/08/03 02:21:35;;;;;;;;;;;;;;;22.57;51.60;99976.91;4300570;33;20002;-82
2022/08/03 02:24:23;;;;;;;;;;;;;;;22.68;51.17;99975.63;4296786;33;20307;-82
2022/08/03 02:35:41;;;;;;;;;;;;;;;22.59;51.73;99981.22;4298097;33;20125;-79
2022/08/03 02:38:10;;;;;;;;;;;;;;;22.44;52.31;99981.69;4302677;33;19980;-80
2022/08/03 02:40:38;;;;;;;;;;;;;;;22.43;52.24;99979.94;4295224;33;19993;-81
2022/08/03 02:43:07;;;;;;;;;;;;;;;22.44;52.15;99979.91;4301842;33;20032;-81
2022/08/03 02:45:35;;;;;;;;;;;;;;;22.65;51.55;99981.00;4299591;33;19993;-81
2022/08/03 02:48:04;;;;;;;;;;;;;;;22.54;52.09;99983.13;4295939;33;20943;-81
2022/08/03 02:50:32;;;;;;;;;;;;;;;22.59;51.77;99980.34;4290500;33;19980;-82
2022/08/03 02:53:01;;;;;;;;;;;;;;;22.54;51.79;99972.59;4296448;33;20349;-82
2022/08/03 02:55:28;;;;;;;;;;;;;;;22.52;51.99;99984.94;4295674;33;19995;-82
2022/08/03 02:57:56;;;;;;;;;;;;;;;22.56;51.76;99981.31;4299435;33;19985;-81
2022/08/03 03:00:29;;;;;;;;;;;;;;;22.54;51.66;99982.28;4299844;33;19980;-82
2022/08/03 03:02:57;;;;;;;;;;;;;;;22.36;52.45;99984.53;4295589;33;19985;-81
2022/08/03 03:05:26;;;;;;;;;;;;;;;22.22;52.98;99981.47;4303925;33;20455;-81
2022/08/03 03:08:15;;;;;;;;;;;;;;;22.29;52.52;99978.59;4295641;33;20003;-80
2022/08/03 03:10:47;;;;;;;;;;;;;;;22.28;52.65;99983.94;4295260;33;19999;-81
2022/08/03 03:13:14;;;;;;;;;;;;;;;22.18;53.00;99980.69;4299816;33;20053;-81
2022/08/03 03:15:41;;;;;;;;;;;;;;;22.15;53.03;99991.31;4302911;33;20040;-82
2022/08/03 03:18:08;;;;;;;;;;;;;;;22.13;53.12;99981.69;4310645;33;20049;-82
2022/08/03 03:20:36;;;;;;;;;;;;;;;22.19;52.84;99985.06;4307133;33;19981;-82
2022/08/03 03:23:03;;;;;;;;;;;;;;;22.03;53.67;99986.37;4302196;33;20319;-80
2022/08/03 03:25:31;;;;;;;;;;;;;;;22.23;52.74;99976.13;4299095;33;19996;-81
2022/08/03 03:28:01;;;;;;;;;;;;;;;22.12;53.28;99980.84;4308011;33;19976;-83
2022/08/03 03:30:28;;;;;;;;;;;;;;;22.02;53.63;99984.66;4306428;33;19993;-82
2022/08/03 03:32:56;;;;;;;;;;;;;;;21.93;53.99;99987.56;4304714;33;19984;-83
2022/08/03 03:35:23;;;;;;;;;;;;;;;21.91;53.90;99976.19;4309751;33;19997;-81
2022/08/03 03:37:50;;;;;;;;;;;;;;;22.05;53.42;99989.84;4309515;33;19984;-81
2022/08/03 03:40:18;;;;;;;;;;;;;;;21.95;53.78;99983.97;4305178;33;19996;-81
2022/08/03 03:42:45;;;;;;;;;;;;;;;21.94;53.99;99986.63;4305598;33;19996;-82
2022/08/03 03:45:12;;;;;;;;;;;;;;;22.03;53.61;99986.37;4298829;33;20020;-82
2022/08/03 03:47:38;;;;;;;;;;;;;;;22.01;53.64;99988.19;4306432;33;20035;-82
2022/08/03 03:50:06;;;;;;;;;;;;;;;21.88;54.20;99989.44;4311527;33;19980;-81
2022/08/03 03:52:33;;;;;;;;;;;;;;;21.76;54.96;99986.25;4306559;33;19999;-81
2022/08/03 03:55:00;;;;;;;;;;;;;;;21.83;54.64;99985.16;4300119;33;20025;-81
2022/08/03 03:57:28;;;;;;;;;;;;;;;21.92;54.55;99984.06;4298192;33;19999;-81
2022/08/03 03:59:55;;;;;;;;;;;;;;;22.08;53.88;99989.75;4296990;33;19977;-81
2022/08/03 04:02:22;;;;;;;;;;;;;;;21.75;55.32;99981.88;4298294;33;19973;-81
2022/08/03 04:13:17;;;;;;;;;;;;;;;22.05;54.86;99992.47;4298188;33;20032;-82
2022/08/03 04:15:44;;;;;;;;;;;;;;;22.00;54.92;100002.28;4303196;33;19984;-81
2022/08/03 04:18:11;;;;;;;;;;;;;;;21.90;55.50;100000.81;4300593;33;20324;-81
2022/08/03 04:20:38;;;;;;;;;;;;;;;22.23;54.33;100006.91;4308908;33;19976;-82
2022/08/03 04:23:05;;;;;;;;;;;;;;;22.21;54.57;100011.41;4307173;33;20054;-82
2022/08/03 04:25:41;;;;;;;;;;;;;;;22.26;54.56;100015.59;4297353;33;20018;-83
2022/08/03 04:28:08;;;;;;;;;;;;;;;22.13;55.41;100014.19;4298682;33;20002;-81
2022/08/03 04:30:55;;;;;;;;;;;;;;;22.25;55.03;100019.16;4306093;33;19976;-81
2022/08/03 04:33:23;;;;;;;;;;;;;;;22.29;55.28;100020.78;4312484;33;19984;-80
2022/08/03 04:35:55;;;;;;;;;;;;;;;22.51;54.93;100014.88;4312904;33;19983;-84
2022/08/03 04:38:35;;;;;;;;;;;;;;;22.57;54.74;100019.97;4297888;33;19999;-80
2022/08/03 04:41:02;;;;;;;;;;;;;;;22.62;54.83;100018.06;4304857;33;19973;-79
2022/08/03 04:43:29;;;;;;;;;;;;;;;22.71;54.93;100023.03;4304457;33;19988;-80
2022/08/03 04:45:56;;;;;;;;;;;;;;;22.87;54.29;100019.94;4297387;33;19999;-80
2022/08/03 04:48:23;;;;;;;;;;;;;;;22.79;55.19;100019.31;4303794;33;20651;-81
2022/08/03 04:50:50;;;;;;;;;;;;;;;23.00;54.34;100017.78;4296650;33;19980;-80
2022/08/03 04:53:17;;;;;;;;;;;;;;;23.11;54.26;100021.84;4305173;33;20048;-79
2022/08/03 04:55:45;;;;;;;;;;;;;;;23.27;53.80;100031.91;4296205;33;20406;-80
2022/08/03 04:58:12;;;;;;;;;;;;;;;23.28;54.27;100041.53;4292665;33;19981;-82
2022/08/03 05:00:39;;;;;;;;;;;;;;;23.31;54.21;100044.94;4303478;33;19994;-81
2022/08/03 05:03:06;;;;;;;;;;;;;;;23.46;53.76;100038.28;4302763;33;20387;-81
2022/08/03 05:05:54;;;;;;;;;;;;;;;23.42;53.97;100036.66;4305061;33;19984;-80
2022/08/03 05:08:35;;;;;;;;;;;;;;;23.54;54.03;100043.31;4310240;33;20010;-80
2022/08/03 05:11:12;;;;;;;;;;;;;;;23.71;53.83;100048.03;4309191;33;19999;-81
2022/08/03 05:13:39;;;;;;;;;;;;;;;23.83;53.16;100048.47;4303859;33;20068;-81
2022/08/03 05:16:06;;;;;;;;;;;;;;;23.84;53.05;100054.66;4301137;33;20000;-81
2022/08/03 05:18:34;;;;;;;;;;;;;;;23.88;52.82;100045.69;4300676;33;20035;-79
2022/08/03 05:21:03;;;;;;;;;;;;;;;23.85;53.35;100057.22;4305232;33;20028;-81
2022/08/03 05:23:30;;;;;;;;;;;;;;;23.96;53.26;100054.19;4298917;33;20639;-80
2022/08/03 05:25:57;;;;;;;;;;;;;;;24.07;53.02;100046.75;4300247;33;20020;-81
2022/08/03 05:28:24;;;;;;;;;;;;;;;24.19;52.75;100052.53;4283334;33;20868;-80
2022/08/03 05:30:50;;;;;;;;;;;;;;;24.21;53.01;100048.03;4286521;33;19969;-81
2022/08/03 05:33:17;;;;;;;;;;;;;;;24.31;52.80;100054.69;4295165;33;20007;-80
2022/08/03 05:35:44;;;;;;;;;;;;;;;24.42;52.85;100052.56;4297716;33;19996;-81
2022/08/03 05:38:30;;;;;;;;;;;;;;;24.45;53.10;100056.88;4296314;33;19989;-80
2022/08/03 05:41:01;;;;;;;;;;;;;;;24.10;55.24;100057.22;4295044;33;19995;-80
2022/08/03 05:43:48;;;;;;;;;;;;;;;24.46;53.35;100058.59;4290256;33;19995;-79
2022/08/03 05:46:15;;;;;;;;;;;;;;;24.75;52.30;100058.34;4283034;33;20410;-79
2022/08/03 05:48:42;;;;;;;;;;;;;;;24.84;51.88;100059.78;4288559;33;20013;-79
2022/08/03 05:51:09;;;;;;;;;;;;;;;24.84;52.12;100059.78;4287654;33;20611;-79
2022/08/03 05:53:38;;;;;;;;;;;;;;;24.92;52.26;100063.00;4290774;33;20342;-80
2022/08/03 05:56:05;;;;;;;;;;;;;;;24.97;52.11;100061.00;4284214;33;20036;-80
2022/08/03 05:58:41;;;;;;;;;;;;;;;24.92;52.42;100064.75;4281028;33;19993;-79
2022/08/03 06:01:07;;;;;;;;;;;;;;;24.83;52.13;100064.22;4288982;33;19972;-80
2022/08/03 06:03:34;;;;;;;;;;;;;;;25.06;51.42;100065.94;4284233;33;19985;-80
2022/08/03 06:06:01;;;;;;;;;;;;;;;25.06;52.13;100068.59;4283072;33;19981;-80
2022/08/03 06:08:28;;;;;;;;;;;;;;;25.26;51.75;100074.91;4300036;33;20028;-79
2022/08/03 06:10:55;;;;;;;;;;;;;;;25.02;52.28;100076.72;4295705;33;19995;-79
2022/08/03 06:13:22;;;;;;;;;;;;;;;25.30;51.19;100079.12;4296241;33;20386;-78
2022/08/03 06:15:51;;;;;;;;;;;;;;;25.22;51.55;100075.97;4292434;33;19995;-79
2022/08/03 06:18:18;;;;;;;;;;;;;;;25.45;51.19;100083.81;4292069;33;19996;-80
2022/08/03 06:20:45;;;;;;;;;;;;;;;25.58;50.82;100072.72;4296692;33;19984;-80
2022/08/03 06:23:15;;;;;;;;;;;;;;;25.68;49.96;100079.34;4296349;33;19992;-79
2022/08/03 06:25:43;;;;;;;;;;;;;;;25.86;50.29;100073.28;4298894;33;20000;-79
2022/08/03 06:28:12;;;;;;;;;;;;;;;25.81;49.89;100069.97;4303858;33;20072;-79
2022/08/03 06:31:01;;;;;;;;;;;;;;;26.14;48.92;100078.25;4313030;33;20036;-79
2022/08/03 06:33:28;;;;;;;;;;;;;;;26.02;49.65;100080.59;4302590;33;19985;-79
2022/08/03 06:36:15;;;;;;;;;;;;;;;26.33;48.68;100078.28;4296973;33;19976;-79
2022/08/03 06:38:42;;;;;;;;;;;;;;;26.51;47.73;100081.06;4287897;33;20734;-79
2022/08/03 06:41:09;;;;;;;;;;;;;;;26.85;46.58;100081.22;4300293;33;20043;-79
2022/08/03 06:43:36;;;;;;;;;;;;;;;27.15;45.92;100083.34;4304767;33;19977;-79
2022/08/03 06:46:23;;;;;;;;;;;;;;;27.34;45.64;100089.50;4297242;33;20044;-79
2022/08/03 06:48:51;;;;;;;;;;;;;;;27.96;44.76;100089.09;4295506;33;20000;-80
2022/08/03 06:51:18;;;;;;;;;;;;;;;28.18;43.28;100089.69;4304646;33;20315;-79
2022/08/03 06:53:45;;;;;;;;;;;;;;;28.57;42.32;100088.53;4296513;33;20033;-80
2022/08/03 06:56:12;;;;;;;;;;;;;;;28.78;42.55;100088.28;4297136;33;19988;-79
2022/08/03 06:58:39;;;;;;;;;;;;;;;29.28;40.94;100087.28;4295138;33;20107;-79
2022/08/03 07:01:05;;;;;;;;;;;;;;;29.55;40.21;100093.69;4296843;33;19984;-79
2022/08/03 07:03:33;;;;;;;;;;;;;;;29.47;39.66;100090.59;4300337;33;19984;-80
2022/08/03 07:06:01;;;;;;;;;;;;;;;29.77;40.23;100087.09;4300192;33;19984;-79
2022/08/03 07:08:29;;;;;;;;;;;;;;;30.22;38.46;100093.31;4303402;33;19993;-81
2022/08/03 07:11:00;;;;;;;;;;;;;;;30.41;38.57;100088.56;4296535;33;20848;-81
2022/08/03 07:13:27;;;;;;;;;;;;;;;30.51;38.79;100091.50;4287588;33;20048;-80
2022/08/03 07:15:53;;;;;;;;;;;;;;;30.58;38.79;100084.81;4270109;33;20033;-80
2022/08/03 07:18:22;;;;;;;;;;;;;;;30.64;37.78;100094.25;4275722;33;19988;-80
2022/08/03 07:20:56;;;;;;;;;;;;;;;31.10;36.32;100091.34;4281498;33;20037;-80
2022/08/03 07:23:24;;;;;;;;;;;;;;;30.80;35.89;100090.53;4276812;33;19973;-81
2022/08/03 07:25:52;;;;;;;;;;;;;;;31.18;36.68;100094.37;4278668;33;19989;-81
2022/08/03 07:28:19;;;;;;;;;;;;;;;31.61;35.71;100089.72;4267743;33;20048;-80
2022/08/03 07:30:46;;;;;;;;;;;;;;;31.26;36.41;100092.03;4275366;33;19977;-81
2022/08/03 07:33:13;;;;;;;;;;;;;;;31.13;36.11;100091.13;4279347;33;20707;-81
2022/08/03 07:35:40;;;;;;;;;;;;;;;31.37;35.97;100094.91;4273744;33;20036;-81
2022/08/03 07:38:08;;;;;;;;;;;;;;;31.34;36.38;100084.41;4267400;33;20000;-81
2022/08/03 07:40:35;;;;;;;;;;;;;;;31.58;35.27;100087.25;4280028;33;19981;-81
2022/08/03 07:43:02;;;;;;;;;;;;;;;31.74;35.61;100085.25;4273046;33;20048;-80
2022/08/03 07:45:30;;;;;;;;;;;;;;;32.13;36.01;100086.19;4281823;33;19997;-79
2022/08/03 07:47:56;;;;;;;;;;;;;;;32.36;35.34;100079.19;4277107;33;19989;-82
2022/08/03 07:50:24;;;;;;;;;;;;;;;32.33;34.69;100082.09;4273439;33;19973;-81
2022/08/03 07:52:52;;;;;;;;;;;;;;;32.26;34.38;100088.88;4266840;33;20497;-80
2022/08/03 07:55:20;;;;;;;;;;;;;;;32.32;33.47;100087.56;4275333;33;19985;-81
2022/08/03 07:57:57;;;;;;;;;;;;;;;32.25;33.68;100087.13;4281655;33;20665;-80
2022/08/03 08:00:24;;;;;;;;;;;;;;;32.55;33.89;100083.28;4281254;33;19980;-81
2022/08/03 08:02:52;;;;;;;;;;;;;;;32.74;34.58;100083.69;4286798;33;20008;-80
2022/08/03 08:05:19;;;;;;;;;;;;;;;32.88;33.45;100075.47;4271688;33;20352;-81
2022/08/03 08:07:46;;;;;;;;;;;;;;;32.84;32.55;100076.66;4267150;33;19997;-81
2022/08/03 08:10:17;;;;;;;;;;;;;;;32.99;32.89;100079.22;4270279;33;20330;-81
2022/08/03 08:12:51;;;;;;;;;;;;;;;33.04;33.95;100077.06;4267752;33;20073;-80
2022/08/03 08:15:23;;;;;;;;;;;;;;;33.34;33.89;100082.84;4273997;33;20004;-80
2022/08/03 08:17:52;;;;;;;;;;;;;;;33.76;31.96;100075.22;4277919;33;19999;-81
2022/08/03 08:20:20;;;;;;;;;;;;;;;33.77;32.17;100084.13;4273985;33;19999;-81
2022/08/03 08:22:55;;;;;;;;;;;;;;;33.83;32.05;100082.78;4287643;33;19999;-81
2022/08/03 08:25:23;;;;;;;;;;;;;;;34.15;30.80;100083.00;4285365;33;19999;-81
2022/08/03 08:27:50;;;;;;;;;;;;;;;33.97;31.00;100078.03;4257837;33;19989;-81
2022/08/03 08:30:39;;;;;;;;;;;;;;;34.07;31.55;100080.91;4281939;33;19995;-81
2022/08/03 08:33:06;;;;;;;;;;;;;;;34.05;31.12;100088.25;4284364;33;20001;-81
2022/08/03 08:35:36;;;;;;;;;;;;;;;34.01;31.74;100087.63;4269996;33;20011;-81
2022/08/03 08:38:05;;;;;;;;;;;;;;;34.05;31.75;100082.00;4272459;33;19985;-81
2022/08/03 08:40:32;;;;;;;;;;;;;;;34.44;30.33;100078.00;4267091;33;19976;-81
2022/08/03 08:42:59;;;;;;;;;;;;;;;34.27;30.94;100076.66;4261731;33;19993;-81
2022/08/03 08:45:26;;;;;;;;;;;;;;;34.55;30.51;100080.69;4281742;33;20774;-81
2022/08/03 08:47:54;;;;;;;;;;;;;;;34.43;30.60;100076.28;4259315;33;19996;-81
2022/08/03 08:50:27;;;;;;;;;;;;;;;33.87;31.68;100074.37;4257747;33;20004;-80
2022/08/03 08:52:54;;;;;;;;;;;;;;;34.42;30.53;100070.03;4281288;33;19997;-79
2022/08/03 08:55:22;;;;;;;;;;;;;;;34.48;30.41;100074.09;4277318;33;20261;-80
2022/08/03 08:57:51;;;;;;;;;;;;;;;34.41;31.67;100067.50;4276565;33;19990;-80
2022/08/03 09:00:18;;;;;;;;;;;;;;;34.71;29.93;100073.09;4254904;33;20022;-80
2022/08/03 09:02:45;;;;;;;;;;;;;;;34.51;29.50;100075.69;4260360;33;20049;-80
2022/08/03 09:05:13;;;;;;;;;;;;;;;34.80;30.27;100073.34;4257830;33;20019;-80
2022/08/03 09:07:40;;;;;;;;;;;;;;;34.70;30.49;100068.72;4262584;33;20052;-79
2022/08/03 09:10:07;;;;;;;;;;;;;;;34.70;30.67;100068.72;4254788;33;20317;-79
2022/08/03 09:12:43;;;;;;;;;;;;;;;35.17;29.64;100066.69;4254391;33;20316;-80
2022/08/03 09:15:15;;;;;;;;;;;;;;;35.21;29.57;100071.81;4262927;33;20316;-79
2022/08/03 09:17:43;;;;;;;;;;;;;;;34.77;29.47;100063.69;4254363;33;19989;-79
2022/08/03 09:20:16;;;;;;;;;;;;;;;34.79;28.60;100055.50;4254881;33;19977;-80
2022/08/03 09:22:52;;;;;;;;;;;;;;;34.80;29.36;100054.53;4276676;33;20784;-79
2022/08/03 09:25:19;;;;;;;;;;;;;;;35.09;27.24;100058.38;4264336;33;20041;-80
2022/08/03 09:27:50;;;;;;;;;;;;;;;35.09;28.65;100053.00;4288314;33;19985;-80
2022/08/03 09:30:18;;;;;;;;;;;;;;;34.87;29.33;100053.03;4276108;33;19980;-82
2022/08/03 09:33:01;;;;;;;;;;;;;;;35.03;30.08;100056.19;4283250;33;20004;-80
2022/08/03 09:35:28;;;;;;;;;;;;;;;35.39;28.47;100048.75;4283231;33;20481;-80
2022/08/03 09:38:17;;;;;;;;;;;;;;;34.87;30.48;100047.66;4281229;33;20013;-81
2022/08/03 09:40:44;;;;;;;;;;;;;;;34.53;29.40;100054.94;4281467;33;19989;-81
2022/08/03 09:43:12;;;;;;;;;;;;;;;35.17;29.12;100052.38;4291030;33;20029;-80
2022/08/03 09:45:39;;;;;;;;;;;;;;;35.68;27.25;100048.13;4281949;33;20016;-81
2022/08/03 09:48:19;;;;;;;;;;;;;;;35.40;27.41;100039.66;4281634;33;20040;-80
2022/08/03 09:50:54;;;;;;;;;;;;;;;35.50;26.82;100040.59;4285900;33;20033;-81
2022/08/03 09:53:42;;;;;;;;;;;;;;;35.38;29.00;100036.25;4294022;33;20616;-80
2022/08/03 09:56:41;;;;;;;;;;;;;;;36.03;25.97;100037.88;4303779;33;19988;-80
2022/08/03 09:59:12;;;;;;;;;;;;;;;35.83;27.07;100036.00;4297154;33;19988;-81
2022/08/03 10:01:40;;;;;;;;;;;;;;;35.16;28.62;100032.69;4297673;33;19992;-81
2022/08/03 10:04:10;;;;;;;;;;;;;;;35.00;29.46;100031.34;4301222;33;19984;-81
2022/08/03 10:06:37;;;;;;;;;;;;;;;35.77;27.84;100025.75;4308932;33;19984;-82
2022/08/03 10:09:09;;;;;;;;;;;;;;;35.63;27.37;100017.03;4306916;33;19984;-81
2022/08/03 10:11:36;;;;;;;;;;;;;;;35.25;26.89;100022.97;4303406;33;19972;-81
2022/08/03 10:14:08;;;;;;;;;;;;;;;35.25;27.26;100022.12;4297147;33;19981;-81
2022/08/03 10:16:37;;;;;;;;;;;;;;;35.37;28.59;100021.09;4297361;33;19996;-81
2022/08/03 10:19:05;;;;;;;;;;;;;;;34.75;26.88;100022.63;4302765;33;19992;-82
2022/08/03 10:21:35;;;;;;;;;;;;;;;35.30;27.78;100019.91;4311688;33;19989;-82
2022/08/03 10:24:03;;;;;;;;;;;;;;;35.22;27.37;100014.28;4310875;33;20012;-82
2022/08/03 10:26:31;;;;;;;;;;;;;;;35.93;26.53;100015.38;4306010;33;20330;-81
2022/08/03 10:29:00;;;;;;;;;;;;;;;35.97;26.71;100011.44;4302540;33;20033;-81
2022/08/03 10:31:30;;;;;;;;;;;;;;;36.02;24.96;100006.50;4296304;33;20315;-82
2022/08/03 10:33:57;;;;;;;;;;;;;;;36.03;26.70;100002.84;4299698;33;19991;-81
2022/08/03 10:36:24;;;;;;;;;;;;;;;36.14;26.09;100001.03;4301502;33;19984;-81
2022/08/03 10:38:52;;;;;;;;;;;;;;;35.56;27.94;100002.41;4295830;33;19996;-82
2022/08/03 10:41:20;;;;;;;;;;;;;;;35.49;26.42;100001.19;4297053;33;19977;-79
2022/08/03 10:43:49;;;;;;;;;;;;;;;36.24;25.57;100002.78;4301220;33;19993;-80
2022/08/03 10:46:17;;;;;;;;;;;;;;;35.54;25.17;99996.28;4295671;33;19992;-80
2022/08/03 10:48:44;;;;;;;;;;;;;;;35.61;27.18;99994.78;4299023;33;20077;-80
2022/08/03 10:51:10;;;;;;;;;;;;;;;35.03;27.03;99999.69;4304712;33;19984;-80
2022/08/03 10:53:39;;;;;;;;;;;;;;;35.79;26.18;99992.31;4309371;33;19980;-79
2022/08/03 10:59:16;;;;;;;;;;;;;;;36.40;24.12;99986.06;4304499;33;20043;-80
2022/08/03 11:01:54;;;;;;;;;;;;;;;35.96;25.57;99982.78;4296442;33;19988;-80
2022/08/03 11:04:28;;;;;;;;;;;;;;;35.44;23.79;99976.50;4304200;33;19998;-80
2022/08/03 11:07:14;;;;;;;;;;;;;;;35.00;25.28;99989.16;4297522;33;19986;-80
2022/08/03 11:09:48;;;;;;;;;;;;;;;34.61;26.37;99978.03;4295076;33;20003;-80
2022/08/03 11:12:22;;;;;;;;;;;;;;;34.97;25.45;99977.78;4303997;33;19976;-80
2022/08/03 11:15:03;;;;;;;;;;;;;;;35.37;24.56;99967.25;4295796;33;19981;-80
2022/08/03 11:17:30;;;;;;;;;;;;;;;35.84;23.85;99962.31;4298402;33;20010;-80
2022/08/03 11:19:57;;;;;;;;;;;;;;;34.97;25.13;99967.88;4303092;33;19984;-80
2022/08/03 11:22:27;;;;;;;;;;;;;;;34.84;25.09;99959.12;4296548;33;20355;-80
2022/08/03 11:24:55;;;;;;;;;;;;;;;35.37;24.34;99949.25;4296541;33;20319;-79
2022/08/03 11:27:22;;;;;;;;;;;;;;;35.94;25.26;99947.03;4312439;33;20036;-79
2022/08/03 11:30:06;;;;;;;;;;;;;;;36.04;24.59;99953.34;4303000;33;20298;-78
2022/08/03 11:32:36;;;;;;;;;;;;;;;36.16;24.66;99951.41;4295796;33;19980;-80
2022/08/03 11:35:10;;;;;;;;;;;;;;;36.54;22.37;99961.47;4296291;33;20035;-79
2022/08/03 11:37:55;;;;;;;;;;;;;;;36.33;23.66;99952.56;4304170;33;20032;-80
2022/08/03 11:40:34;;;;;;;;;;;;;;;35.94;22.41;99952.41;4288606;33;20011;-80
2022/08/03 11:43:01;;;;;;;;;;;;;;;35.51;24.31;99956.13;4303108;33;20444;-79
2022/08/03 11:45:28;;;;;;;;;;;;;;;36.12;23.82;99943.72;4297435;33;19986;-80
2022/08/03 11:47:59;;;;;;;;;;;;;;;36.06;22.96;99939.75;4302642;33;20310;-79
2022/08/03 11:50:26;;;;;;;;;;;;;;;35.49;22.95;99944.66;4296152;33;20735;-79
2022/08/03 11:52:53;;;;;;;;;;;;;;;35.63;24.12;99936.25;4295069;33;20844;-80
2022/08/03 11:55:20;;;;;;;;;;;;;;;35.23;23.46;99940.63;4301569;33;20677;-80
2022/08/03 11:57:48;;;;;;;;;;;;;;;34.64;25.67;99945.50;4295766;33;20039;-86
2022/08/03 12:00:35;;;;;;;;;;;;;;;34.64;26.19;99942.81;4303673;33;19988;-81
2022/08/03 12:03:02;;;;;;;;;;;;;;;34.84;25.87;99943.00;4317664;33;19988;-80
2022/08/03 12:05:32;;;;;;;;;;;;;;;34.71;25.21;99940.47;4304236;33;20000;-80
2022/08/03 12:07:59;;;;;;;;;;;;;;;35.15;25.34;99939.47;4298785;33;20346;-81
2022/08/03 12:10:32;;;;;;;;;;;;;;;35.63;24.59;99930.00;4301440;33;20019;-79
2022/08/03 12:13:00;;;;;;;;;;;;;;;35.64;25.01;99934.41;4301599;33;20016;-80
2022/08/03 12:15:28;;;;;;;;;;;;;;;35.50;24.78;99932.87;4299818;33;19999;-79
2022/08/03 12:17:55;;;;;;;;;;;;;;;35.72;24.87;99931.06;4304516;33;20341;-80
2022/08/03 12:20:25;;;;;;;;;;;;;;;35.87;23.71;99935.09;4270504;33;914989;-80
2022/08/03 12:23:02;;;;;;;;;;;;;;;35.73;24.43;99932.75;4300093;33;19972;-80
2022/08/03 12:25:30;;;;;;;;;;;;;;;34.70;25.38;99933.41;4308567;33;20283;-80
2022/08/03 12:28:08;;;;;;;;;;;;;;;34.39;24.89;99926.97;4312044;33;19972;-81
2022/08/03 12:30:59;;;;;;;;;;;;;;;34.24;26.51;99921.03;4305566;33;20002;-81
2022/08/03 12:33:27;;;;;;;;;;;;;;;34.11;26.18;99921.19;4296717;33;19980;-80
2022/08/03 12:36:06;;;;;;;;;;;;;;;34.24;25.87;99921.88;4302160;33;20317;-81
2022/08/03 12:38:33;;;;;;;;;;;;;;;33.93;26.16;99922.63;4291019;33;19984;-81
2022/08/03 12:41:07;;;;;;;;;;;;;;;34.22;27.15;99913.09;4303516;33;20044;-79
2022/08/03 12:43:34;;;;;;;;;;;;;;;34.37;25.53;99915.50;4304998;33;20036;-81
2022/08/03 12:46:09;;;;;;;;;;;;;;;34.57;24.41;99914.75;4303893;33;20695;-82
2022/08/03 12:48:36;;;;;;;;;;;;;;;34.36;26.26;99911.94;4290569;33;20039;-83
2022/08/03 12:51:07;;;;;;;;;;;;;;;34.10;27.10;99907.84;4297887;33;19973;-83
2022/08/03 12:53:34;;;;;;;;;;;;;;;34.14;25.64;99902.13;4297164;33;20020;-82
2022/08/03 12:56:02;;;;;;;;;;;;;;;34.49;26.57;99901.03;4296800;33;19976;-83
2022/08/03 12:58:33;;;;;;;;;;;;;;;35.22;23.84;99901.25;4302014;33;20469;-84
2022/08/03 13:01:03;;;;;;;;;;;;;;;35.16;24.88;99902.63;4310193;33;20056;-82
2022/08/03 13:03:40;;;;;;;;;;;;;;;35.15;25.87;99899.09;4312217;33;19991;-82
2022/08/03 13:06:12;;;;;;;;;;;;;;;35.29;23.70;99891.66;4303232;33;19983;-81
2022/08/03 13:08:40;;;;;;;;;;;;;;;35.27;24.06;99893.66;4310826;33;20000;-82
2022/08/03 13:11:26;;;;;;;;;;;;;;;35.26;25.14;99884.72;4311777;33;20063;-81
2022/08/03 13:14:13;;;;;;;;;;;;;;;35.26;24.21;99882.03;4303760;33;19980;-80
2022/08/03 13:16:46;;;;;;;;;;;;;;;34.95;22.80;99884.63;4310262;33;19988;-81